EmailTwitter


Observations de surface / Québec / CYUL (71627)

Régions: Québec | Canada | États-Unis | Europe | France | UK | Elsewhere
Station
Affichage
Infos & localisation pour CYUL (71627) | Aide pour décoder les METARs

Observations prises le 2017-06-24 à 11H00 UTC à MONTREAL INTL A, QB (CYUL)

Etat du ciel: partiellement nuageux.

Température: 18.0 Celsius

Point de rosée: 17.0 Celsius

Humidité relative: 94%

Indice Humidex: 23.

Vents: Ouest à 13 km/h ou 7 noeuds.

Pression au niveau moyen de la mer: 99.94 kilopascals.

Calage altimétrique: 99.93 kilopascals ou 29.51 pouces de mercure.

Visibilité horizontale: 15.00 milles terrestres ou 24.00 kilomètres.

Hauteur du plafond: 5486 mètres ( 18000 pieds ).

Observation METAR:

CYUL 241100Z 26007KT 15SM FEW150 BKN180 18/17 A2951 RMK AC1AC6 PRESRR SLP994

DENSITY ALT 1100FT=